Aérodrome :
LOGIN :

S'inscrire | Disclaimer

   EN    FR    IT 

 










Légende :    VFR   VFR Marginal   IFR   IFR Intensif   IFR Très Intensif
Visi : 
Plafond : 
>= 8 km
>= 3000ft
5 à 8 km
1000 à 3000 ft
1500m à 5 km
500 à 1000 ft
800 à 1500m
200 à 500 ft
< 800m
< 200 ft
Symboles :   Orages  Brouillard  Fortes neiges  Fortes précipitations  Vent > 20 kt
SIGMETs :   Divers  Orages  Givrage  Turbulence  Onde Orograph.  Cendres Volcan.







- Altitude de l'aérodrome : 17 ft
- Code IATA : MPL
- Voir les cartes d'approche


LFMT - Montpellier Méditerranée

DERNIER METAR :
  • 170930Z AUTO VRB02KT 9999 OVC049/// ///TCU 17/14 Q1017 TEMPO 32012KT SHRA BKN013TCU

METARs EXPIRÉS :
  • 170900Z AUTO VRB02KT 9999 ///TCU 16/13 Q1017 TEMPO 32012KT SHRA BKN013TCU
  • 170830Z AUTO VRB03KT 9999 SCT045/// OVC056/// ///TCU 16/14 Q1017 TEMPO SHRA BKN013TCU
  • 170800Z AUTO 36004KT 9999 BKN048 OVC054 16/14 Q1017 TEMPO SHRA BKN040TCU
  • 170730Z AUTO 35005KT 9999 FEW047 OVC054 16/14 Q1017 TEMPO SHRA BKN040TCU
  • 170700Z AUTO VRB02KT 9999 FEW044 SCT050 OVC064 15/14 Q1017 TEMPO SHRA BKN040TCU

TAF TAF LFMT
Valide du 17 à 09h jusqu'au 18 à 09h UTC


170800Z 1709/1809 VRB02KT CAVOK
TEMPO 1709/1713 32012KT SHRA BKN013TCU
TEMPO 1801/1809 02012KT SHRA BKN013TCU
ATIS : +33 4 67 13 11 70
Pas de NOTAMs connus pour ce terrain.



MET'MAP, la Météo Aéronautique d'un coup d'oeil ! - Copyright ORBIFLY Décembre 2007 - Disclaimer

ORBIFLY MET'MAP TEAM :

Programmation & Développement : Alexandra Zaïnal
Conception & Développement : Baudouin d'Aumeries
Co-Programmation & Développement : Marc-Olivier Méhu
Soutien technique & logistique : Manuel Goepfert

Contact : metmap@orbifly.com




SOURCES & CREDITS :

   NOAA